Terminal Aerodrome Forecast
Issued by NWS

Home | Current Version | Previous Version | Text Only | Print | Product List | Glossary On
Versions: 1 2 3 4 5 6 7 8 9 10 11 12 13 14 15 16 17 18 19 20 21 22
565
FTUS41 KRLX 231133
TAFCKB
TAF
KCKB 231133Z 2312/2412 VRB03KT 5SM BR SCT025
     FM231400 24004KT P6SM SCT025
     FM231700 26005KT P6SM SCT035
     FM240900 00000KT 3SM BR SCT050=

USA.gov is the U.S. government's official web portal to all federal, state and local government web resources and services.